sensor_id;sensor_type;location;lat;lon;timestamp;pressure;altitude;pressure_sealevel;temperature;humidity
70127;BME280;57491;42.694;23.314;2022-12-10T00:01:29;94486.72;;;11.21;66.08
70127;BME280;57491;42.694;23.314;2022-12-10T00:03:57;94463.72;;;11.25;67.43
70127;BME280;57491;42.694;23.314;2022-12-10T00:06:27;94496.94;;;11.36;66.53
70127;BME280;57491;42.694;23.314;2022-12-10T00:08:55;94498.94;;;11.27;66.24
70127;BME280;57491;42.694;23.314;2022-12-10T00:11:23;94475.50;;;11.07;67.33
70127;BME280;57491;42.694;23.314;2022-12-10T00:13:51;94511.34;;;11.32;66.59
70127;BME280;57491;42.694;23.314;2022-12-10T00:16:22;94502.38;;;11.41;66.05
70127;BME280;57491;42.694;23.314;2022-12-10T00:18:50;94499.00;;;11.47;65.88
70127;BME280;57491;42.694;23.314;2022-12-10T00:21:19;94502.75;;;11.31;65.79
70127;BME280;57491;42.694;23.314;2022-12-10T00:23:47;94491.34;;;11.26;66.38
70127;BME280;57491;42.694;23.314;2022-12-10T00:26:16;94474.13;;;11.25;66.98
70127;BME280;57491;42.694;23.314;2022-12-10T00:28:45;94485.94;;;11.27;66.18
70127;BME280;57491;42.694;23.314;2022-12-10T00:31:14;94482.53;;;11.40;67.39
70127;BME280;57491;42.694;23.314;2022-12-10T00:33:44;94487.78;;;11.46;66.56
70127;BME280;57491;42.694;23.314;2022-12-10T00:36:13;94499.56;;;11.49;65.93
70127;BME280;57491;42.694;23.314;2022-12-10T00:38:42;94484.78;;;11.56;66.61
70127;BME280;57491;42.694;23.314;2022-12-10T00:41:10;94473.16;;;11.45;65.99
70127;BME280;57491;42.694;23.314;2022-12-10T00:43:37;94478.16;;;11.34;66.23
70127;BME280;57491;42.694;23.314;2022-12-10T00:46:05;94498.06;;;11.00;66.89
70127;BME280;57491;42.694;23.314;2022-12-10T00:48:32;94493.63;;;10.88;67.89
70127;BME280;57491;42.694;23.314;2022-12-10T00:51:03;94485.47;;;11.04;68.79
70127;BME280;57491;42.694;23.314;2022-12-10T00:53:31;94470.06;;;11.09;68.00
70127;BME280;57491;42.694;23.314;2022-12-10T00:55:59;94494.31;;;11.16;66.75
70127;BME280;57491;42.694;23.314;2022-12-10T00:58:28;94504.50;;;11.17;66.59
70127;BME280;57491;42.694;23.314;2022-12-10T01:01:06;94462.44;;;11.01;67.00
70127;BME280;57491;42.694;23.314;2022-12-10T01:03:34;94476.75;;;11.38;67.11
70127;BME280;57491;42.694;23.314;2022-12-10T01:06:09;94485.72;;;11.22;66.41
70127;BME280;57491;42.694;23.314;2022-12-10T01:08:37;94472.13;;;11.33;67.60
70127;BME280;57491;42.694;23.314;2022-12-10T01:11:05;94490.53;;;11.25;67.16
70127;BME280;57491;42.694;23.314;2022-12-10T01:13:32;94496.56;;;11.26;66.90
70127;BME280;57491;42.694;23.314;2022-12-10T01:16:00;94495.94;;;11.30;67.12
70127;BME280;57491;42.694;23.314;2022-12-10T01:18:27;94480.34;;;11.37;67.02
70127;BME280;57491;42.694;23.314;2022-12-10T01:20:55;94471.31;;;11.39;66.72
70127;BME280;57491;42.694;23.314;2022-12-10T01:23:23;94476.56;;;11.46;66.36
70127;BME280;57491;42.694;23.314;2022-12-10T01:25:50;94469.13;;;11.49;67.19
70127;BME280;57491;42.694;23.314;2022-12-10T01:28:19;94471.94;;;11.41;66.28
70127;BME280;57491;42.694;23.314;2022-12-10T01:30:46;94477.13;;;11.35;67.31
70127;BME280;57491;42.694;23.314;2022-12-10T01:33:14;94475.53;;;11.34;67.24
70127;BME280;57491;42.694;23.314;2022-12-10T01:35:41;94453.09;;;11.26;67.30
70127;BME280;57491;42.694;23.314;2022-12-10T01:38:08;94468.34;;;11.42;67.05
70127;BME280;57491;42.694;23.314;2022-12-10T01:40:38;94460.31;;;11.44;67.92
70127;BME280;57491;42.694;23.314;2022-12-10T01:43:05;94460.13;;;11.45;66.97
70127;BME280;57491;42.694;23.314;2022-12-10T01:45:32;94473.94;;;11.46;66.89
70127;BME280;57491;42.694;23.314;2022-12-10T01:47:59;94465.94;;;11.54;67.64
70127;BME280;57491;42.694;23.314;2022-12-10T01:50:26;94480.38;;;11.56;66.32
70127;BME280;57491;42.694;23.314;2022-12-10T01:52:54;94476.38;;;11.60;67.03
70127;BME280;57491;42.694;23.314;2022-12-10T01:55:52;94451.34;;;11.66;67.68
70127;BME280;57491;42.694;23.314;2022-12-10T01:58:19;94471.56;;;11.64;67.22
70127;BME280;57491;42.694;23.314;2022-12-10T02:00:57;94465.56;;;11.70;66.86
70127;BME280;57491;42.694;23.314;2022-12-10T02:03:35;94453.16;;;11.66;66.73
70127;BME280;57491;42.694;23.314;2022-12-10T02:06:14;94454.34;;;11.70;66.57
70127;BME280;57491;42.694;23.314;2022-12-10T02:08:49;94461.34;;;11.62;67.95
70127;BME280;57491;42.694;23.314;2022-12-10T02:11:22;94459.34;;;11.71;67.20
70127;BME280;57491;42.694;23.314;2022-12-10T02:13:57;94453.13;;;11.59;67.25
70127;BME280;57491;42.694;23.314;2022-12-10T02:16:31;94453.50;;;11.36;67.47
70127;BME280;57491;42.694;23.314;2022-12-10T02:19:09;94474.94;;;11.32;68.02
70127;BME280;57491;42.694;23.314;2022-12-10T02:21:41;94461.91;;;11.12;69.24
70127;BME280;57491;42.694;23.314;2022-12-10T02:24:14;94452.28;;;11.19;69.74
70127;BME280;57491;42.694;23.314;2022-12-10T02:26:55;94461.72;;;11.33;68.90
70127;BME280;57491;42.694;23.314;2022-12-10T02:29:27;94400.06;;;11.21;69.51
70127;BME280;57491;42.694;23.314;2022-12-10T02:31:59;94394.44;;;11.10;68.79
70127;BME280;57491;42.694;23.314;2022-12-10T02:34:30;94440.72;;;11.54;68.68
70127;BME280;57491;42.694;23.314;2022-12-10T02:37:03;94439.09;;;11.53;68.59
70127;BME280;57491;42.694;23.314;2022-12-10T02:39:36;94426.09;;;11.60;68.27
70127;BME280;57491;42.694;23.314;2022-12-10T02:42:06;94440.94;;;11.66;67.72
70127;BME280;57491;42.694;23.314;2022-12-10T02:44:38;94441.50;;;11.68;67.89
70127;BME280;57491;42.694;23.314;2022-12-10T02:47:07;94422.28;;;11.69;69.22
70127;BME280;57491;42.694;23.314;2022-12-10T02:49:37;94437.16;;;11.75;67.99
70127;BME280;57491;42.694;23.314;2022-12-10T02:52:07;94440.16;;;11.79;68.60
70127;BME280;57491;42.694;23.314;2022-12-10T02:54:38;94425.91;;;11.81;68.09
70127;BME280;57491;42.694;23.314;2022-12-10T02:57:28;94438.72;;;11.76;67.97
70127;BME280;57491;42.694;23.314;2022-12-10T03:00:16;94426.53;;;11.83;68.19
70127;BME280;57491;42.694;23.314;2022-12-10T03:05:35;94419.69;;;11.62;68.01
70127;BME280;57491;42.694;23.314;2022-12-10T03:08:06;94429.13;;;11.70;68.38
70127;BME280;57491;42.694;23.314;2022-12-10T03:10:39;94433.16;;;11.79;68.93
70127;BME280;57491;42.694;23.314;2022-12-10T03:13:10;94428.72;;;11.80;68.10
70127;BME280;57491;42.694;23.314;2022-12-10T03:15:41;94427.72;;;11.87;67.39
70127;BME280;57491;42.694;23.314;2022-12-10T03:18:10;94424.13;;;11.88;68.39
70127;BME280;57491;42.694;23.314;2022-12-10T03:20:41;94425.50;;;11.97;68.61
70127;BME280;57491;42.694;23.314;2022-12-10T03:23:13;94417.09;;;11.95;68.33
70127;BME280;57491;42.694;23.314;2022-12-10T03:25:42;94421.50;;;12.01;67.93
70127;BME280;57491;42.694;23.314;2022-12-10T03:28:10;94415.25;;;12.02;68.16
70127;BME280;57491;42.694;23.314;2022-12-10T03:30:40;94408.28;;;11.96;67.22
70127;BME280;57491;42.694;23.314;2022-12-10T03:33:08;94403.44;;;11.93;66.90
70127;BME280;57491;42.694;23.314;2022-12-10T03:35:36;94414.69;;;12.00;67.52
70127;BME280;57491;42.694;23.314;2022-12-10T03:38:05;94415.09;;;11.84;68.06
70127;BME280;57491;42.694;23.314;2022-12-10T03:40:32;94407.88;;;11.86;68.30
70127;BME280;57491;42.694;23.314;2022-12-10T03:42:59;94414.31;;;11.84;68.92
70127;BME280;57491;42.694;23.314;2022-12-10T03:45:26;94421.28;;;11.90;69.10
70127;BME280;57491;42.694;23.314;2022-12-10T03:47:55;94420.91;;;11.93;68.63
70127;BME280;57491;42.694;23.314;2022-12-10T03:50:22;94399.88;;;11.88;69.13
70127;BME280;57491;42.694;23.314;2022-12-10T03:52:49;94388.84;;;11.86;70.06
70127;BME280;57491;42.694;23.314;2022-12-10T03:55:16;94395.66;;;11.80;70.62
70127;BME280;57491;42.694;23.314;2022-12-10T03:57:43;94399.06;;;11.87;70.92
70127;BME280;57491;42.694;23.314;2022-12-10T04:00:11;94395.06;;;11.78;70.44
70127;BME280;57491;42.694;23.314;2022-12-10T04:02:38;94393.84;;;11.87;70.67
70127;BME280;57491;42.694;23.314;2022-12-10T04:05:08;94405.47;;;11.91;70.80
70127;BME280;57491;42.694;23.314;2022-12-10T04:07:35;94386.03;;;12.00;71.41
70127;BME280;57491;42.694;23.314;2022-12-10T04:10:03;94404.47;;;11.92;71.16
70127;BME280;57491;42.694;23.314;2022-12-10T04:12:30;94406.69;;;11.82;70.63
70127;BME280;57491;42.694;23.314;2022-12-10T04:14:57;94393.25;;;11.85;71.55
70127;BME280;57491;42.694;23.314;2022-12-10T04:17:42;94419.91;;;11.87;71.75
70127;BME280;57491;42.694;23.314;2022-12-10T04:20:10;94426.50;;;11.90;71.82
70127;BME280;57491;42.694;23.314;2022-12-10T04:22:51;94401.47;;;12.02;72.06
70127;BME280;57491;42.694;23.314;2022-12-10T04:25:35;94405.44;;;11.98;71.69
70127;BME280;57491;42.694;23.314;2022-12-10T04:28:16;94402.41;;;12.07;71.70
70127;BME280;57491;42.694;23.314;2022-12-10T04:30:43;94403.88;;;11.97;71.15
70127;BME280;57491;42.694;23.314;2022-12-10T04:33:10;94413.25;;;11.98;71.24
70127;BME280;57491;42.694;23.314;2022-12-10T04:35:39;94417.88;;;11.89;72.41
70127;BME280;57491;42.694;23.314;2022-12-10T04:38:06;94419.47;;;12.03;72.43
70127;BME280;57491;42.694;23.314;2022-12-10T04:40:33;94407.66;;;11.94;71.67
70127;BME280;57491;42.694;23.314;2022-12-10T04:43:00;94383.81;;;11.84;71.76
70127;BME280;57491;42.694;23.314;2022-12-10T04:45:27;94398.47;;;11.92;71.37
70127;BME280;57491;42.694;23.314;2022-12-10T04:47:54;94408.66;;;12.06;72.39
70127;BME280;57491;42.694;23.314;2022-12-10T04:50:21;94413.88;;;12.06;71.34
70127;BME280;57491;42.694;23.314;2022-12-10T04:52:49;94423.47;;;11.99;72.11
70127;BME280;57491;42.694;23.314;2022-12-10T04:55:17;94427.91;;;11.86;73.15
70127;BME280;57491;42.694;23.314;2022-12-10T04:57:44;94409.06;;;11.97;72.87
70127;BME280;57491;42.694;23.314;2022-12-10T05:00:12;94412.66;;;12.02;73.48
70127;BME280;57491;42.694;23.314;2022-12-10T05:02:39;94431.94;;;11.88;72.57
70127;BME280;57491;42.694;23.314;2022-12-10T05:05:06;94417.28;;;11.54;74.35
70127;BME280;57491;42.694;23.314;2022-12-10T05:07:33;94411.88;;;11.49;75.77
70127;BME280;57491;42.694;23.314;2022-12-10T05:10:03;94429.94;;;11.77;76.56
70127;BME280;57491;42.694;23.314;2022-12-10T05:12:31;94426.72;;;11.88;75.87
70127;BME280;57491;42.694;23.314;2022-12-10T05:14:58;94415.88;;;11.85;74.45
70127;BME280;57491;42.694;23.314;2022-12-10T05:17:25;94408.28;;;11.70;75.20
70127;BME280;57491;42.694;23.314;2022-12-10T05:19:52;94407.88;;;11.80;76.08
70127;BME280;57491;42.694;23.314;2022-12-10T05:22:19;94404.28;;;11.87;76.08
70127;BME280;57491;42.694;23.314;2022-12-10T05:25:05;94413.91;;;11.87;74.39
70127;BME280;57491;42.694;23.314;2022-12-10T05:27:32;94368.84;;;11.73;76.40
70127;BME280;57491;42.694;23.314;2022-12-10T05:30:00;94383.22;;;11.95;75.41
70127;BME280;57491;42.694;23.314;2022-12-10T05:32:27;94389.44;;;12.01;76.76
70127;BME280;57491;42.694;23.314;2022-12-10T05:34:54;94395.81;;;11.98;75.77
70127;BME280;57491;42.694;23.314;2022-12-10T05:37:21;94409.47;;;12.00;74.65
70127;BME280;57491;42.694;23.314;2022-12-10T05:39:48;94416.31;;;11.82;75.74
70127;BME280;57491;42.694;23.314;2022-12-10T05:42:16;94416.28;;;11.69;76.72
70127;BME280;57491;42.694;23.314;2022-12-10T05:44:43;94411.25;;;11.67;77.07
70127;BME280;57491;42.694;23.314;2022-12-10T05:47:10;94429.72;;;11.79;77.01
70127;BME280;57491;42.694;23.314;2022-12-10T05:49:38;94424.72;;;11.77;76.57
70127;BME280;57491;42.694;23.314;2022-12-10T05:52:05;94425.31;;;11.86;76.61
70127;BME280;57491;42.694;23.314;2022-12-10T05:54:32;94426.28;;;11.98;76.95
70127;BME280;57491;42.694;23.314;2022-12-10T05:56:59;94437.50;;;12.05;76.17
70127;BME280;57491;42.694;23.314;2022-12-10T05:59:27;94434.28;;;12.03;76.22
70127;BME280;57491;42.694;23.314;2022-12-10T06:01:54;94409.66;;;12.05;76.67
70127;BME280;57491;42.694;23.314;2022-12-10T06:04:21;94416.25;;;12.15;76.92
70127;BME280;57491;42.694;23.314;2022-12-10T06:06:48;94424.88;;;12.08;76.02
70127;BME280;57491;42.694;23.314;2022-12-10T06:09:15;94434.28;;;12.10;76.33
70127;BME280;57491;42.694;23.314;2022-12-10T06:11:43;94444.75;;;11.96;77.14
70127;BME280;57491;42.694;23.314;2022-12-10T06:14:10;94445.13;;;11.93;77.57
70127;BME280;57491;42.694;23.314;2022-12-10T06:16:39;94438.13;;;12.00;77.06
70127;BME280;57491;42.694;23.314;2022-12-10T06:19:07;94435.50;;;12.00;76.64
70127;BME280;57491;42.694;23.314;2022-12-10T06:21:34;94433.50;;;12.09;77.50
70127;BME280;57491;42.694;23.314;2022-12-10T06:24:01;94427.88;;;12.19;77.35
70127;BME280;57491;42.694;23.314;2022-12-10T06:26:28;94433.66;;;12.27;76.10
70127;BME280;57491;42.694;23.314;2022-12-10T06:28:55;94405.81;;;12.15;76.11
70127;BME280;57491;42.694;23.314;2022-12-10T06:31:22;94402.41;;;12.14;75.95
70127;BME280;57491;42.694;23.314;2022-12-10T06:33:53;94414.59;;;12.27;75.85
70127;BME280;57491;42.694;23.314;2022-12-10T06:36:20;94402.41;;;12.07;77.12
70127;BME280;57491;42.694;23.314;2022-12-10T06:38:49;94394.97;;;12.18;77.52
70127;BME280;57491;42.694;23.314;2022-12-10T06:41:18;94379.78;;;12.08;76.64
70127;BME280;57491;42.694;23.314;2022-12-10T06:43:46;94396.59;;;12.19;77.13
70127;BME280;57491;42.694;23.314;2022-12-10T06:46:14;94412.78;;;12.34;77.48
70127;BME280;57491;42.694;23.314;2022-12-10T06:48:42;94422.22;;;12.28;76.48
70127;BME280;57491;42.694;23.314;2022-12-10T06:51:11;94422.88;;;12.11;76.60
70127;BME280;57491;42.694;23.314;2022-12-10T06:53:40;94430.06;;;12.22;77.08
70127;BME280;57491;42.694;23.314;2022-12-10T06:56:09;94441.28;;;12.29;76.72
70127;BME280;57491;42.694;23.314;2022-12-10T06:58:38;94458.31;;;12.31;75.88
70127;BME280;57491;42.694;23.314;2022-12-10T07:01:08;94452.47;;;12.36;76.41
70127;BME280;57491;42.694;23.314;2022-12-10T07:03:35;94439.81;;;12.46;76.19
70127;BME280;57491;42.694;23.314;2022-12-10T07:06:03;94435.38;;;12.53;75.85
70127;BME280;57491;42.694;23.314;2022-12-10T07:08:32;94441.97;;;12.62;74.79
70127;BME280;57491;42.694;23.314;2022-12-10T07:11:03;94442.94;;;12.68;74.87
70127;BME280;57491;42.694;23.314;2022-12-10T07:13:30;94444.13;;;12.72;74.67
70127;BME280;57491;42.694;23.314;2022-12-10T07:15:57;94439.06;;;12.83;74.02
70127;BME280;57491;42.694;23.314;2022-12-10T07:18:25;94435.44;;;12.91;73.12
70127;BME280;57491;42.694;23.314;2022-12-10T07:20:53;94416.78;;;12.87;73.47
70127;BME280;57491;42.694;23.314;2022-12-10T07:23:20;94406.72;;;12.91;72.72
70127;BME280;57491;42.694;23.314;2022-12-10T07:25:49;94418.69;;;13.05;72.60
70127;BME280;57491;42.694;23.314;2022-12-10T07:28:16;94411.44;;;13.07;72.07
70127;BME280;57491;42.694;23.314;2022-12-10T07:30:43;94398.66;;;12.99;71.30
70127;BME280;57491;42.694;23.314;2022-12-10T07:33:10;94404.41;;;13.14;72.26
70127;BME280;57491;42.694;23.314;2022-12-10T07:35:38;94403.41;;;13.09;71.54
70127;BME280;57491;42.694;23.314;2022-12-10T07:38:05;94416.22;;;13.17;71.61
70127;BME280;57491;42.694;23.314;2022-12-10T07:40:32;94404.34;;;13.21;71.13
70127;BME280;57491;42.694;23.314;2022-12-10T07:43:01;94400.47;;;13.30;71.45
70127;BME280;57491;42.694;23.314;2022-12-10T07:45:28;94401.66;;;13.34;71.60
70127;BME280;57491;42.694;23.314;2022-12-10T07:47:55;94402.03;;;13.37;71.57
70127;BME280;57491;42.694;23.314;2022-12-10T07:50:22;94418.47;;;13.45;71.21
70127;BME280;57491;42.694;23.314;2022-12-10T07:52:49;94416.31;;;13.35;69.59
70127;BME280;57491;42.694;23.314;2022-12-10T07:55:16;94416.53;;;13.33;70.51
70127;BME280;57491;42.694;23.314;2022-12-10T07:57:43;94400.91;;;13.27;72.00
70127;BME280;57491;42.694;23.314;2022-12-10T08:00:13;94387.00;;;13.33;72.10
70127;BME280;57491;42.694;23.314;2022-12-10T08:02:40;94387.16;;;13.38;71.49
70127;BME280;57491;42.694;23.314;2022-12-10T08:05:08;94394.50;;;13.54;71.21
70127;BME280;57491;42.694;23.314;2022-12-10T08:07:35;94380.56;;;13.60;69.84
70127;BME280;57491;42.694;23.314;2022-12-10T08:10:03;94387.34;;;13.68;69.57
70127;BME280;57491;42.694;23.314;2022-12-10T08:12:30;94379.78;;;13.78;69.11
70127;BME280;57491;42.694;23.314;2022-12-10T08:14:57;94367.28;;;13.87;70.48
70127;BME280;57491;42.694;23.314;2022-12-10T08:17:26;94367.78;;;13.95;69.89
70127;BME280;57491;42.694;23.314;2022-12-10T08:19:53;94380.06;;;14.13;69.59
70127;BME280;57491;42.694;23.314;2022-12-10T08:22:21;94381.44;;;14.15;67.92
70127;BME280;57491;42.694;23.314;2022-12-10T08:24:48;94371.72;;;14.22;68.26
70127;BME280;57491;42.694;23.314;2022-12-10T08:27:15;94379.47;;;14.29;68.01
70127;BME280;57491;42.694;23.314;2022-12-10T08:29:42;94368.22;;;14.28;67.84
70127;BME280;57491;42.694;23.314;2022-12-10T08:32:09;94372.66;;;14.28;68.06
70127;BME280;57491;42.694;23.314;2022-12-10T08:34:37;94368.75;;;14.37;66.59
70127;BME280;57491;42.694;23.314;2022-12-10T08:37:05;94363.00;;;14.47;66.14
70127;BME280;57491;42.694;23.314;2022-12-10T08:39:32;94353.78;;;14.62;66.97
70127;BME280;57491;42.694;23.314;2022-12-10T08:41:59;94364.06;;;14.76;66.89
70127;BME280;57491;42.694;23.314;2022-12-10T08:44:26;94352.69;;;14.82;65.71
70127;BME280;57491;42.694;23.314;2022-12-10T08:46:53;94355.22;;;14.77;65.92
70127;BME280;57491;42.694;23.314;2022-12-10T08:49:20;94355.78;;;14.79;66.14
70127;BME280;57491;42.694;23.314;2022-12-10T08:51:48;94342.50;;;14.92;65.88
70127;BME280;57491;42.694;23.314;2022-12-10T08:54:16;94350.22;;;15.16;65.87
70127;BME280;57491;42.694;23.314;2022-12-10T08:56:43;94336.66;;;15.08;65.60
70127;BME280;57491;42.694;23.314;2022-12-10T08:59:10;94343.16;;;15.17;65.16
70127;BME280;57491;42.694;23.314;2022-12-10T09:01:37;94345.91;;;15.34;65.37
70127;BME280;57491;42.694;23.314;2022-12-10T09:04:04;94343.56;;;15.55;64.41
70127;BME280;57491;42.694;23.314;2022-12-10T09:06:31;94329.78;;;15.72;64.01
70127;BME280;57491;42.694;23.314;2022-12-10T09:09:00;94340.38;;;15.88;62.55
70127;BME280;57491;42.694;23.314;2022-12-10T09:11:29;94326.34;;;15.94;62.19
70127;BME280;57491;42.694;23.314;2022-12-10T09:13:57;94325.41;;;16.12;62.51
70127;BME280;57491;42.694;23.314;2022-12-10T09:16:27;94315.50;;;16.14;62.08
70127;BME280;57491;42.694;23.314;2022-12-10T09:18:55;94332.31;;;16.41;61.58
70127;BME280;57491;42.694;23.314;2022-12-10T09:21:23;94336.03;;;16.69;60.86
70127;BME280;57491;42.694;23.314;2022-12-10T09:23:50;94334.09;;;16.92;59.64
70127;BME280;57491;42.694;23.314;2022-12-10T09:26:19;94311.50;;;17.08;59.02
70127;BME280;57491;42.694;23.314;2022-12-10T09:28:47;94304.22;;;17.10;59.04
70127;BME280;57491;42.694;23.314;2022-12-10T09:31:18;94306.13;;;17.48;58.98
70127;BME280;57491;42.694;23.314;2022-12-10T09:33:47;94295.47;;;18.10;55.61
70127;BME280;57491;42.694;23.314;2022-12-10T09:36:15;94300.88;;;18.63;55.19
70127;BME280;57491;42.694;23.314;2022-12-10T09:38:44;94296.66;;;19.48;52.35
70127;BME280;57491;42.694;23.314;2022-12-10T09:41:24;94288.72;;;20.32;50.21
70127;BME280;57491;42.694;23.314;2022-12-10T09:44:01;94290.09;;;20.39;49.70
70127;BME280;57491;42.694;23.314;2022-12-10T09:46:40;94260.69;;;20.21;49.16
70127;BME280;57491;42.694;23.314;2022-12-10T09:49:17;94273.38;;;21.26;47.17
70127;BME280;57491;42.694;23.314;2022-12-10T09:51:58;94269.19;;;22.50;43.22
70127;BME280;57491;42.694;23.314;2022-12-10T09:54:29;94275.56;;;23.37;42.25
70127;BME280;57491;42.694;23.314;2022-12-10T09:56:59;94264.16;;;23.03;42.00
70127;BME280;57491;42.694;23.314;2022-12-10T09:59:30;94271.50;;;22.67;42.81
70127;BME280;57491;42.694;23.314;2022-12-10T10:02:18;94272.09;;;23.03;43.38
70127;BME280;57491;42.694;23.314;2022-12-10T10:04:46;94271.88;;;24.25;39.29
70127;BME280;57491;42.694;23.314;2022-12-10T10:07:18;94262.34;;;24.85;38.09
70127;BME280;57491;42.694;23.314;2022-12-10T10:09:46;94265.38;;;24.36;38.80
70127;BME280;57491;42.694;23.314;2022-12-10T10:12:15;94249.88;;;23.95;40.07
70127;BME280;57491;42.694;23.314;2022-12-10T10:14:43;94247.50;;;23.94;39.53
70127;BME280;57491;42.694;23.314;2022-12-10T10:17:14;94252.06;;;23.60;40.81
70127;BME280;57491;42.694;23.314;2022-12-10T10:19:43;94263.06;;;23.77;40.83
70127;BME280;57491;42.694;23.314;2022-12-10T10:22:11;94254.94;;;23.92;40.32
70127;BME280;57491;42.694;23.314;2022-12-10T10:24:40;94242.28;;;23.84;40.62
70127;BME280;57491;42.694;23.314;2022-12-10T10:27:13;94235.63;;;23.58;40.63
70127;BME280;57491;42.694;23.314;2022-12-10T10:29:44;94218.59;;;23.64;40.80
70127;BME280;57491;42.694;23.314;2022-12-10T10:32:15;94222.28;;;24.15;39.48
70127;BME280;57491;42.694;23.314;2022-12-10T10:34:44;94223.09;;;24.16;38.74
70127;BME280;57491;42.694;23.314;2022-12-10T10:37:16;94199.84;;;25.06;38.20
70127;BME280;57491;42.694;23.314;2022-12-10T10:39:49;94190.19;;;25.75;35.76
70127;BME280;57491;42.694;23.314;2022-12-10T10:42:31;94196.72;;;26.24;34.91
70127;BME280;57491;42.694;23.314;2022-12-10T10:45:05;94201.88;;;26.34;34.05
70127;BME280;57491;42.694;23.314;2022-12-10T10:47:34;94213.16;;;26.12;34.67
70127;BME280;57491;42.694;23.314;2022-12-10T10:50:03;94213.38;;;26.02;35.06
70127;BME280;57491;42.694;23.314;2022-12-10T10:52:36;94197.19;;;26.39;35.04
70127;BME280;57491;42.694;23.314;2022-12-10T10:55:04;94204.81;;;26.32;33.62
70127;BME280;57491;42.694;23.314;2022-12-10T10:57:33;94190.91;;;25.48;35.93
70127;BME280;57491;42.694;23.314;2022-12-10T11:00:05;94176.97;;;25.70;35.36
70127;BME280;57491;42.694;23.314;2022-12-10T11:02:35;94176.47;;;26.09;34.71
70127;BME280;57491;42.694;23.314;2022-12-10T11:05:05;94188.59;;;25.74;35.43
70127;BME280;57491;42.694;23.314;2022-12-10T11:07:35;94178.13;;;25.64;36.44
70127;BME280;57491;42.694;23.314;2022-12-10T11:10:04;94188.63;;;25.42;35.85
70127;BME280;57491;42.694;23.314;2022-12-10T11:12:45;94181.28;;;25.01;37.40
70127;BME280;57491;42.694;23.314;2022-12-10T11:15:31;94166.13;;;24.83;38.31
70127;BME280;57491;42.694;23.314;2022-12-10T11:17:59;94150.13;;;24.69;38.80
70127;BME280;57491;42.694;23.314;2022-12-10T11:20:29;94127.38;;;24.44;38.65
70127;BME280;57491;42.694;23.314;2022-12-10T11:22:57;94133.19;;;24.47;38.33
70127;BME280;57491;42.694;23.314;2022-12-10T11:25:41;94141.59;;;24.35;38.85
70127;BME280;57491;42.694;23.314;2022-12-10T11:28:36;94120.00;;;23.99;39.43
70127;BME280;57491;42.694;23.314;2022-12-10T11:31:26;94098.81;;;23.46;40.47
70127;BME280;57491;42.694;23.314;2022-12-10T11:34:03;94109.44;;;22.89;41.54
70127;BME280;57491;42.694;23.314;2022-12-10T11:36:40;94144.44;;;22.91;42.16
70127;BME280;57491;42.694;23.314;2022-12-10T11:39:24;94125.50;;;22.74;42.22
70127;BME280;57491;42.694;23.314;2022-12-10T11:42:00;94139.53;;;23.03;42.10
70127;BME280;57491;42.694;23.314;2022-12-10T11:44:37;94126.16;;;23.42;41.33
70127;BME280;57491;42.694;23.314;2022-12-10T11:47:23;94135.13;;;23.51;40.76
70127;BME280;57491;42.694;23.314;2022-12-10T11:50:02;94122.84;;;23.31;41.27
70127;BME280;57491;42.694;23.314;2022-12-10T11:52:51;94130.25;;;23.05;41.67
70127;BME280;57491;42.694;23.314;2022-12-10T11:55:28;94097.38;;;22.78;42.24
70127;BME280;57491;42.694;23.314;2022-12-10T11:58:11;94118.59;;;22.67;42.50
70127;BME280;57491;42.694;23.314;2022-12-10T12:00:49;94115.81;;;22.49;42.80
70127;BME280;57491;42.694;23.314;2022-12-10T12:03:40;94102.16;;;21.83;44.07
70127;BME280;57491;42.694;23.314;2022-12-10T12:06:35;94110.00;;;21.39;45.54
70127;BME280;57491;42.694;23.314;2022-12-10T12:09:15;94106.84;;;21.11;46.14
70127;BME280;57491;42.694;23.314;2022-12-10T12:11:59;94113.47;;;20.83;47.06
70127;BME280;57491;42.694;23.314;2022-12-10T12:14:31;94102.13;;;20.47;48.01
70127;BME280;57491;42.694;23.314;2022-12-10T12:17:06;94086.22;;;20.12;48.22
70127;BME280;57491;42.694;23.314;2022-12-10T12:19:37;94081.63;;;19.67;50.10
70127;BME280;57491;42.694;23.314;2022-12-10T12:22:13;94060.06;;;19.28;51.08
70127;BME280;57491;42.694;23.314;2022-12-10T12:24:44;94067.34;;;19.11;51.54
70127;BME280;57491;42.694;23.314;2022-12-10T12:27:22;94072.31;;;19.02;51.85
70127;BME280;57491;42.694;23.314;2022-12-10T12:29:59;94080.00;;;18.67;52.54
70127;BME280;57491;42.694;23.314;2022-12-10T12:32:32;94088.50;;;18.47;53.33
70127;BME280;57491;42.694;23.314;2022-12-10T12:35:07;94055.69;;;18.23;54.69
70127;BME280;57491;42.694;23.314;2022-12-10T12:37:45;94030.66;;;18.20;54.47
70127;BME280;57491;42.694;23.314;2022-12-10T12:40:15;94042.19;;;18.19;54.64
70127;BME280;57491;42.694;23.314;2022-12-10T12:42:50;94031.00;;;18.02;55.54
70127;BME280;57491;42.694;23.314;2022-12-10T12:45:31;94032.03;;;17.96;56.13
70127;BME280;57491;42.694;23.314;2022-12-10T12:48:05;94038.56;;;17.94;56.31
70127;BME280;57491;42.694;23.314;2022-12-10T12:50:43;94034.78;;;17.84;56.00
70127;BME280;57491;42.694;23.314;2022-12-10T12:53:13;94036.78;;;17.72;56.56
70127;BME280;57491;42.694;23.314;2022-12-10T12:55:49;94042.16;;;17.61;57.12
70127;BME280;57491;42.694;23.314;2022-12-10T12:58:26;94035.19;;;17.50;57.64
70127;BME280;57491;42.694;23.314;2022-12-10T13:01:08;94031.78;;;17.49;57.74
70127;BME280;57491;42.694;23.314;2022-12-10T13:03:41;94022.97;;;17.38;57.68
70127;BME280;57491;42.694;23.314;2022-12-10T13:06:27;94020.78;;;17.30;58.55
70127;BME280;57491;42.694;23.314;2022-12-10T13:08:59;94010.84;;;17.32;59.03
70127;BME280;57491;42.694;23.314;2022-12-10T13:11:44;94009.47;;;17.30;58.36